sensor_id;sensor_type;location;lat;lon;timestamp;pressure;altitude;pressure_sealevel;temperature;humidity
12666;BME280;58531;59.050;17.416;2023-03-25T00:01:51;98207.91;;;1.63;100.00
12666;BME280;58531;59.050;17.416;2023-03-25T00:04:18;98216.78;;;1.57;100.00
12666;BME280;58531;59.050;17.416;2023-03-25T00:06:45;98223.22;;;1.56;100.00
12666;BME280;58531;59.050;17.416;2023-03-25T00:09:13;98242.19;;;1.51;100.00
12666;BME280;58531;59.050;17.416;2023-03-25T00:11:40;98248.88;;;1.43;100.00
12666;BME280;58531;59.050;17.416;2023-03-25T00:14:07;98254.38;;;1.36;100.00
12666;BME280;58531;59.050;17.416;2023-03-25T00:16:34;98272.06;;;1.35;100.00
12666;BME280;58531;59.050;17.416;2023-03-25T00:19:01;98276.25;;;1.33;100.00
12666;BME280;58531;59.050;17.416;2023-03-25T00:21:28;98285.00;;;1.30;100.00
12666;BME280;58531;59.050;17.416;2023-03-25T00:23:57;98288.63;;;1.23;100.00
12666;BME280;58531;59.050;17.416;2023-03-25T00:26:26;98300.00;;;1.20;100.00
12666;BME280;58531;59.050;17.416;2023-03-25T00:28:54;98305.38;;;1.17;100.00
12666;BME280;58531;59.050;17.416;2023-03-25T00:31:21;98311.50;;;1.14;100.00
12666;BME280;58531;59.050;17.416;2023-03-25T00:33:48;98308.66;;;1.09;100.00
12666;BME280;58531;59.050;17.416;2023-03-25T00:36:15;98326.03;;;1.06;100.00
12666;BME280;58531;59.050;17.416;2023-03-25T00:38:42;98331.50;;;0.99;100.00
12666;BME280;58531;59.050;17.416;2023-03-25T00:41:12;98342.88;;;0.96;100.00
12666;BME280;58531;59.050;17.416;2023-03-25T00:43:43;98345.31;;;0.91;100.00
12666;BME280;58531;59.050;17.416;2023-03-25T00:46:10;98347.19;;;0.90;100.00
12666;BME280;58531;59.050;17.416;2023-03-25T00:48:37;98349.81;;;0.90;100.00
12666;BME280;58531;59.050;17.416;2023-03-25T00:51:04;98353.91;;;0.91;100.00
12666;BME280;58531;59.050;17.416;2023-03-25T00:53:35;98367.91;;;0.88;100.00
12666;BME280;58531;59.050;17.416;2023-03-25T00:56:03;98368.88;;;0.82;100.00
12666;BME280;58531;59.050;17.416;2023-03-25T00:58:30;98372.97;;;0.83;100.00
12666;BME280;58531;59.050;17.416;2023-03-25T01:00:58;98386.19;;;0.79;100.00
12666;BME280;58531;59.050;17.416;2023-03-25T01:03:26;98378.31;;;0.79;100.00
12666;BME280;58531;59.050;17.416;2023-03-25T01:05:54;98397.44;;;0.80;100.00
12666;BME280;58531;59.050;17.416;2023-03-25T01:08:22;98397.56;;;0.76;100.00
12666;BME280;58531;59.050;17.416;2023-03-25T01:10:51;98405.13;;;0.74;100.00
12666;BME280;58531;59.050;17.416;2023-03-25T01:13:19;98407.00;;;0.74;100.00
12666;BME280;58531;59.050;17.416;2023-03-25T01:15:46;98409.66;;;0.74;100.00
12666;BME280;58531;59.050;17.416;2023-03-25T01:18:14;98418.69;;;0.73;100.00
12666;BME280;58531;59.050;17.416;2023-03-25T01:20:41;98433.59;;;0.76;100.00
12666;BME280;58531;59.050;17.416;2023-03-25T01:23:08;98432.88;;;0.75;100.00
12666;BME280;58531;59.050;17.416;2023-03-25T01:25:36;98444.22;;;0.72;100.00
12666;BME280;58531;59.050;17.416;2023-03-25T01:28:03;98447.47;;;0.76;100.00
12666;BME280;58531;59.050;17.416;2023-03-25T01:30:30;98456.19;;;0.73;100.00
12666;BME280;58531;59.050;17.416;2023-03-25T01:32:58;98462.94;;;0.74;100.00
12666;BME280;58531;59.050;17.416;2023-03-25T01:35:26;98462.06;;;0.77;100.00
12666;BME280;58531;59.050;17.416;2023-03-25T01:37:53;98461.44;;;0.73;100.00
12666;BME280;58531;59.050;17.416;2023-03-25T01:40:21;98465.88;;;0.76;100.00
12666;BME280;58531;59.050;17.416;2023-03-25T01:42:49;98461.44;;;0.73;100.00
12666;BME280;58531;59.050;17.416;2023-03-25T01:45:22;98473.31;;;0.65;100.00
12666;BME280;58531;59.050;17.416;2023-03-25T01:47:58;98471.53;;;0.62;100.00
12666;BME280;58531;59.050;17.416;2023-03-25T01:50:29;98475.00;;;0.59;100.00
12666;BME280;58531;59.050;17.416;2023-03-25T01:52:57;98478.44;;;0.56;100.00
12666;BME280;58531;59.050;17.416;2023-03-25T01:55:28;98471.81;;;0.52;100.00
12666;BME280;58531;59.050;17.416;2023-03-25T01:57:58;98477.81;;;0.52;100.00
12666;BME280;58531;59.050;17.416;2023-03-25T02:00:27;98472.69;;;0.49;100.00
12666;BME280;58531;59.050;17.416;2023-03-25T02:02:57;98482.13;;;0.46;100.00
12666;BME280;58531;59.050;17.416;2023-03-25T02:05:32;98483.28;;;0.45;100.00
12666;BME280;58531;59.050;17.416;2023-03-25T02:08:01;98479.16;;;0.44;100.00
12666;BME280;58531;59.050;17.416;2023-03-25T02:10:30;98486.41;;;0.40;100.00
12666;BME280;58531;59.050;17.416;2023-03-25T02:12:58;98491.34;;;0.38;100.00
12666;BME280;58531;59.050;17.416;2023-03-25T02:15:25;98492.09;;;0.39;100.00
12666;BME280;58531;59.050;17.416;2023-03-25T02:18:07;98487.03;;;0.44;100.00
12666;BME280;58531;59.050;17.416;2023-03-25T02:21:22;98489.78;;;0.41;100.00
12666;BME280;58531;59.050;17.416;2023-03-25T02:27:24;98498.91;;;0.36;100.00
12666;BME280;58531;59.050;17.416;2023-03-25T02:30:29;98507.59;;;0.33;100.00
12666;BME280;58531;59.050;17.416;2023-03-25T02:39:13;98519.16;;;0.23;100.00
12666;BME280;58531;59.050;17.416;2023-03-25T02:41:49;98522.19;;;0.22;100.00
12666;BME280;58531;59.050;17.416;2023-03-25T02:44:25;98521.78;;;0.23;100.00
12666;BME280;58531;59.050;17.416;2023-03-25T02:46:56;98519.16;;;0.23;100.00
12666;BME280;58531;59.050;17.416;2023-03-25T02:49:28;98523.31;;;0.21;100.00
12666;BME280;58531;59.050;17.416;2023-03-25T02:52:01;98526.69;;;0.21;100.00
12666;BME280;58531;59.050;17.416;2023-03-25T02:54:35;98532.78;;;0.18;100.00
12666;BME280;58531;59.050;17.416;2023-03-25T02:57:04;98545.47;;;0.20;100.00
12666;BME280;58531;59.050;17.416;2023-03-25T02:59:33;98546.88;;;0.24;100.00
12666;BME280;58531;59.050;17.416;2023-03-25T03:02:05;98552.72;;;0.28;100.00
12666;BME280;58531;59.050;17.416;2023-03-25T03:04:44;98553.47;;;0.29;100.00
12666;BME280;58531;59.050;17.416;2023-03-25T03:07:16;98559.47;;;0.29;100.00
12666;BME280;58531;59.050;17.416;2023-03-25T03:09:51;98556.00;;;0.32;100.00
12666;BME280;58531;59.050;17.416;2023-03-25T03:12:32;98557.47;;;0.33;100.00
12666;BME280;58531;59.050;17.416;2023-03-25T03:15:08;98558.94;;;0.34;100.00
12666;BME280;58531;59.050;17.416;2023-03-25T03:17:43;98552.22;;;0.33;100.00
12666;BME280;58531;59.050;17.416;2023-03-25T03:20:18;98566.94;;;0.31;100.00
12666;BME280;58531;59.050;17.416;2023-03-25T03:22:53;98562.41;;;0.31;100.00
12666;BME280;58531;59.050;17.416;2023-03-25T03:25:31;98563.47;;;0.34;100.00
12666;BME280;58531;59.050;17.416;2023-03-25T03:28:04;98561.56;;;0.34;100.00
12666;BME280;58531;59.050;17.416;2023-03-25T03:30:41;98568.47;;;0.28;100.00
12666;BME280;58531;59.050;17.416;2023-03-25T03:33:13;98563.56;;;0.30;100.00
12666;BME280;58531;59.050;17.416;2023-03-25T03:35:49;98567.66;;;0.31;100.00
12666;BME280;58531;59.050;17.416;2023-03-25T03:38:24;98566.59;;;0.29;100.00
12666;BME280;58531;59.050;17.416;2023-03-25T03:40:55;98574.88;;;0.27;100.00
12666;BME280;58531;59.050;17.416;2023-03-25T03:43:26;98579.72;;;0.29;100.00
12666;BME280;58531;59.050;17.416;2023-03-25T03:45:58;98581.09;;;0.33;100.00
12666;BME280;58531;59.050;17.416;2023-03-25T03:48:30;98577.22;;;0.25;100.00
12666;BME280;58531;59.050;17.416;2023-03-25T03:51:00;98580.47;;;0.29;100.00
12666;BME280;58531;59.050;17.416;2023-03-25T03:53:30;98575.84;;;0.33;100.00
12666;BME280;58531;59.050;17.416;2023-03-25T03:56:03;98590.44;;;0.34;100.00
12666;BME280;58531;59.050;17.416;2023-03-25T03:58:35;98592.25;;;0.37;100.00
12666;BME280;58531;59.050;17.416;2023-03-25T04:01:07;98588.16;;;0.36;100.00
12666;BME280;58531;59.050;17.416;2023-03-25T04:03:39;98599.06;;;0.35;100.00
12666;BME280;58531;59.050;17.416;2023-03-25T04:06:16;98603.41;;;0.41;100.00
12666;BME280;58531;59.050;17.416;2023-03-25T04:08:51;98603.41;;;0.41;100.00
12666;BME280;58531;59.050;17.416;2023-03-25T04:11:26;98604.22;;;0.38;100.00
12666;BME280;58531;59.050;17.416;2023-03-25T04:13:58;98606.53;;;0.36;100.00
12666;BME280;58531;59.050;17.416;2023-03-25T04:16:25;98621.44;;;0.39;100.00
12666;BME280;58531;59.050;17.416;2023-03-25T04:18:53;98616.84;;;0.43;100.00
12666;BME280;58531;59.050;17.416;2023-03-25T04:21:20;98623.06;;;0.49;100.00
12666;BME280;58531;59.050;17.416;2023-03-25T04:23:47;98621.28;;;0.46;100.00
12666;BME280;58531;59.050;17.416;2023-03-25T04:26:14;98627.16;;;0.50;100.00
12666;BME280;58531;59.050;17.416;2023-03-25T04:28:43;98623.06;;;0.49;100.00
12666;BME280;58531;59.050;17.416;2023-03-25T04:31:12;98620.13;;;0.47;100.00
12666;BME280;58531;59.050;17.416;2023-03-25T04:33:41;98623.69;;;0.41;100.00
12666;BME280;58531;59.050;17.416;2023-03-25T04:36:12;98632.28;;;0.41;100.00
12666;BME280;58531;59.050;17.416;2023-03-25T04:38:40;98623.75;;;0.37;100.00
12666;BME280;58531;59.050;17.416;2023-03-25T04:41:10;98627.53;;;0.36;100.00
12666;BME280;58531;59.050;17.416;2023-03-25T04:43:38;98621.63;;;0.32;100.00
12666;BME280;58531;59.050;17.416;2023-03-25T04:46:09;98620.34;;;0.24;100.00
12666;BME280;58531;59.050;17.416;2023-03-25T04:48:36;98622.81;;;0.15;100.00
12666;BME280;58531;59.050;17.416;2023-03-25T04:51:06;98629.22;;;0.14;100.00
12666;BME280;58531;59.050;17.416;2023-03-25T04:53:36;98647.50;;;0.18;100.00
12666;BME280;58531;59.050;17.416;2023-03-25T04:56:05;98658.00;;;0.18;100.00
12666;BME280;58531;59.050;17.416;2023-03-25T04:58:37;98654.31;;;0.15;100.00
12666;BME280;58531;59.050;17.416;2023-03-25T05:01:06;98651.78;;;0.12;100.00
12666;BME280;58531;59.050;17.416;2023-03-25T05:03:35;98660.06;;;0.10;100.00
12666;BME280;58531;59.050;17.416;2023-03-25T05:06:05;98669.31;;;0.15;100.00
12666;BME280;58531;59.050;17.416;2023-03-25T05:08:32;98673.03;;;0.17;100.00
12666;BME280;58531;59.050;17.416;2023-03-25T05:10:59;98675.97;;;0.19;100.00
12666;BME280;58531;59.050;17.416;2023-03-25T05:13:27;98673.66;;;0.21;100.00
12666;BME280;58531;59.050;17.416;2023-03-25T05:15:54;98670.53;;;0.26;100.00
12666;BME280;58531;59.050;17.416;2023-03-25T05:18:22;98670.84;;;0.28;100.00
12666;BME280;58531;59.050;17.416;2023-03-25T05:20:49;98667.00;;;0.33;100.00
12666;BME280;58531;59.050;17.416;2023-03-25T05:23:17;98669.31;;;0.31;100.00
12666;BME280;58531;59.050;17.416;2023-03-25T05:25:47;98679.38;;;0.32;100.00
12666;BME280;58531;59.050;17.416;2023-03-25T05:28:15;98686.09;;;0.33;100.00
12666;BME280;58531;59.050;17.416;2023-03-25T05:30:44;98681.78;;;0.27;100.00
12666;BME280;58531;59.050;17.416;2023-03-25T05:33:12;98675.78;;;0.26;100.00
12666;BME280;58531;59.050;17.416;2023-03-25T05:35:41;98681.03;;;0.26;100.00
12666;BME280;58531;59.050;17.416;2023-03-25T05:38:09;98684.31;;;0.30;100.00
12666;BME280;58531;59.050;17.416;2023-03-25T05:40:38;98688.50;;;0.28;100.00
12666;BME280;58531;59.050;17.416;2023-03-25T05:43:05;98698.91;;;0.31;100.00
12666;BME280;58531;59.050;17.416;2023-03-25T05:45:32;98697.25;;;0.37;100.00
12666;BME280;58531;59.050;17.416;2023-03-25T05:48:00;98695.78;;;0.36;100.00
12666;BME280;58531;59.050;17.416;2023-03-25T05:50:27;98698.34;;;0.40;100.00
12666;BME280;58531;59.050;17.416;2023-03-25T05:52:55;98704.81;;;0.35;100.00
12666;BME280;58531;59.050;17.416;2023-03-25T05:55:24;98706.28;;;0.36;100.00
12666;BME280;58531;59.050;17.416;2023-03-25T05:57:51;98709.34;;;0.35;100.00
12666;BME280;58531;59.050;17.416;2023-03-25T06:00:19;98714.66;;;0.31;100.00
12666;BME280;58531;59.050;17.416;2023-03-25T06:02:47;98713.44;;;0.36;100.00
12666;BME280;58531;59.050;17.416;2023-03-25T06:05:15;98711.53;;;0.36;100.00
12666;BME280;58531;59.050;17.416;2023-03-25T06:07:43;98711.53;;;0.36;100.00
12666;BME280;58531;59.050;17.416;2023-03-25T06:10:13;98709.16;;;0.42;100.00
12666;BME280;58531;59.050;17.416;2023-03-25T06:12:42;98711.03;;;0.41;100.00
12666;BME280;58531;59.050;17.416;2023-03-25T06:15:11;98703.63;;;0.52;100.00
12666;BME280;58531;59.050;17.416;2023-03-25T06:17:39;98711.66;;;0.61;100.00
12666;BME280;58531;59.050;17.416;2023-03-25T06:20:08;98710.66;;;0.71;100.00
12666;BME280;58531;59.050;17.416;2023-03-25T06:22:37;98715.16;;;0.71;100.00
12666;BME280;58531;59.050;17.416;2023-03-25T06:25:05;98710.66;;;0.71;100.00
12666;BME280;58531;59.050;17.416;2023-03-25T06:27:33;98710.91;;;0.89;100.00
12666;BME280;58531;59.050;17.416;2023-03-25T06:30:06;98719.66;;;1.27;100.00
12666;BME280;58531;59.050;17.416;2023-03-25T06:32:34;98721.66;;;1.35;100.00
12666;BME280;58531;59.050;17.416;2023-03-25T06:35:01;98721.44;;;1.30;100.00
12666;BME280;58531;59.050;17.416;2023-03-25T06:37:27;98726.41;;;1.40;100.00
12666;BME280;58531;59.050;17.416;2023-03-25T06:39:54;98727.56;;;1.27;100.00
12666;BME280;58531;59.050;17.416;2023-03-25T06:42:24;98727.78;;;1.04;100.00
12666;BME280;58531;59.050;17.416;2023-03-25T06:44:52;98728.03;;;0.81;100.00
12666;BME280;58531;59.050;17.416;2023-03-25T06:47:20;98727.16;;;0.72;100.00
12666;BME280;58531;59.050;17.416;2023-03-25T06:49:47;98735.47;;;0.70;100.00
12666;BME280;58531;59.050;17.416;2023-03-25T06:52:14;98739.88;;;0.73;100.00
12666;BME280;58531;59.050;17.416;2023-03-25T06:54:41;98737.66;;;0.72;100.00
12666;BME280;58531;59.050;17.416;2023-03-25T06:57:07;98734.47;;;0.64;100.00
12666;BME280;58531;59.050;17.416;2023-03-25T06:59:34;98730.88;;;0.58;100.00
12666;BME280;58531;59.050;17.416;2023-03-25T07:02:02;98738.00;;;0.58;100.00
12666;BME280;58531;59.050;17.416;2023-03-25T07:04:29;98739.72;;;0.64;100.00
12666;BME280;58531;59.050;17.416;2023-03-25T07:06:56;98738.00;;;0.58;100.00
12666;BME280;58531;59.050;17.416;2023-03-25T07:09:23;98742.53;;;0.57;100.00
12666;BME280;58531;59.050;17.416;2023-03-25T07:11:50;98739.97;;;0.54;100.00
12666;BME280;58531;59.050;17.416;2023-03-25T07:14:17;98732.63;;;0.49;100.00
12666;BME280;58531;59.050;17.416;2023-03-25T07:16:44;98735.41;;;0.42;100.00
12666;BME280;58531;59.050;17.416;2023-03-25T07:19:12;98740.56;;;0.45;100.00
12666;BME280;58531;59.050;17.416;2023-03-25T07:21:39;98734.91;;;0.47;100.00
12666;BME280;58531;59.050;17.416;2023-03-25T07:24:06;98738.81;;;0.55;100.00
12666;BME280;58531;59.050;17.416;2023-03-25T07:26:32;98742.59;;;0.54;100.00
12666;BME280;58531;59.050;17.416;2023-03-25T07:28:59;98746.13;;;0.63;100.00
12666;BME280;58531;59.050;17.416;2023-03-25T07:31:27;98747.63;;;0.64;100.00
12666;BME280;58531;59.050;17.416;2023-03-25T07:33:54;98743.84;;;0.65;100.00
12666;BME280;58531;59.050;17.416;2023-03-25T07:36:25;98739.41;;;0.62;100.00
12666;BME280;58531;59.050;17.416;2023-03-25T07:38:52;98740.88;;;0.63;100.00
12666;BME280;58531;59.050;17.416;2023-03-25T07:41:19;98733.47;;;0.74;100.00
12666;BME280;58531;59.050;17.416;2023-03-25T07:43:45;98737.19;;;0.89;100.00
12666;BME280;58531;59.050;17.416;2023-03-25T07:46:12;98745.81;;;1.18;100.00
12666;BME280;58531;59.050;17.416;2023-03-25T07:48:39;98743.09;;;1.34;100.00
12666;BME280;58531;59.050;17.416;2023-03-25T07:51:06;98740.00;;;1.51;100.00
12666;BME280;58531;59.050;17.416;2023-03-25T07:53:35;98738.41;;;1.54;100.00
12666;BME280;58531;59.050;17.416;2023-03-25T07:56:07;98731.56;;;1.44;100.00
12666;BME280;58531;59.050;17.416;2023-03-25T07:58:34;98739.94;;;1.26;100.00
12666;BME280;58531;59.050;17.416;2023-03-25T08:01:01;98746.41;;;1.10;100.00
12666;BME280;58531;59.050;17.416;2023-03-25T08:03:29;98749.31;;;0.99;100.00
12666;BME280;58531;59.050;17.416;2023-03-25T08:05:59;98752.78;;;0.96;100.00
12666;BME280;58531;59.050;17.416;2023-03-25T08:08:27;98745.97;;;0.99;100.00
12666;BME280;58531;59.050;17.416;2023-03-25T08:10:56;98743.66;;;1.01;100.00
12666;BME280;58531;59.050;17.416;2023-03-25T08:13:24;98743.56;;;1.04;100.00
12666;BME280;58531;59.050;17.416;2023-03-25T08:15:51;98755.13;;;1.07;100.00
12666;BME280;58531;59.050;17.416;2023-03-25T08:18:18;98749.81;;;0.94;100.00
12666;BME280;58531;59.050;17.416;2023-03-25T08:20:45;98736.69;;;0.94;100.00
12666;BME280;58531;59.050;17.416;2023-03-25T08:23:12;98736.47;;;0.89;100.00
12666;BME280;58531;59.050;17.416;2023-03-25T08:25:44;98735.53;;;0.95;100.00
12666;BME280;58531;59.050;17.416;2023-03-25T08:28:15;98742.50;;;1.02;100.00
12666;BME280;58531;59.050;17.416;2023-03-25T08:30:46;98745.06;;;1.17;100.00
12666;BME280;58531;59.050;17.416;2023-03-25T08:33:14;98755.34;;;1.40;100.00
12666;BME280;58531;59.050;17.416;2023-03-25T08:35:43;98752.19;;;1.45;100.00
12666;BME280;58531;59.050;17.416;2023-03-25T08:38:10;98758.69;;;1.41;100.00
12666;BME280;58531;59.050;17.416;2023-03-25T08:40:37;98765.94;;;1.37;100.00
12666;BME280;58531;59.050;17.416;2023-03-25T08:43:06;98757.53;;;1.42;100.00
12666;BME280;58531;59.050;17.416;2023-03-25T08:45:34;98754.53;;;1.56;100.00
12666;BME280;58531;59.050;17.416;2023-03-25T08:48:02;98753.16;;;1.64;100.00
12666;BME280;58531;59.050;17.416;2023-03-25T08:50:29;98745.47;;;1.57;100.00
12666;BME280;58531;59.050;17.416;2023-03-25T08:52:56;98751.25;;;1.52;100.00
12666;BME280;58531;59.050;17.416;2023-03-25T08:55:23;98747.34;;;1.44;100.00
12666;BME280;58531;59.050;17.416;2023-03-25T08:57:50;98744.94;;;1.62;100.00
12666;BME280;58531;59.050;17.416;2023-03-25T09:00:17;98756.00;;;1.69;100.00
12666;BME280;58531;59.050;17.416;2023-03-25T09:02:50;98747.78;;;1.55;100.00
12666;BME280;58531;59.050;17.416;2023-03-25T09:05:17;98744.00;;;1.56;100.00
12666;BME280;58531;59.050;17.416;2023-03-25T09:07:44;98751.69;;;1.63;100.00
12666;BME280;58531;59.050;17.416;2023-03-25T09:10:11;98745.28;;;1.64;100.00
12666;BME280;58531;59.050;17.416;2023-03-25T09:12:38;98742.09;;;1.56;100.00
12666;BME280;58531;59.050;17.416;2023-03-25T09:15:07;98746.31;;;1.54;100.00
12666;BME280;58531;59.050;17.416;2023-03-25T09:17:34;98746.19;;;1.57;100.00
12666;BME280;58531;59.050;17.416;2023-03-25T09:20:03;98742.91;;;1.53;100.00
12666;BME280;58531;59.050;17.416;2023-03-25T09:22:32;98747.91;;;1.51;100.00
12666;BME280;58531;59.050;17.416;2023-03-25T09:24:59;98746.50;;;1.59;100.00
12666;BME280;58531;59.050;17.416;2023-03-25T09:27:26;98748.09;;;1.57;100.00
12666;BME280;58531;59.050;17.416;2023-03-25T09:29:53;98742.19;;;1.53;100.00
12666;BME280;58531;59.050;17.416;2023-03-25T09:32:20;98750.41;;;1.55;100.00
12666;BME280;58531;59.050;17.416;2023-03-25T09:34:47;98749.56;;;1.58;100.00
12666;BME280;58531;59.050;17.416;2023-03-25T09:37:15;98750.94;;;1.62;100.00
12666;BME280;58531;59.050;17.416;2023-03-25T09:39:42;98736.63;;;1.63;100.00
12666;BME280;58531;59.050;17.416;2023-03-25T09:42:28;98730.41;;;1.57;100.00
12666;BME280;58531;59.050;17.416;2023-03-25T09:45:05;98734.50;;;1.58;100.00
12666;BME280;58531;59.050;17.416;2023-03-25T09:47:33;98739.25;;;1.51;100.00
12666;BME280;58531;59.050;17.416;2023-03-25T09:50:04;98733.34;;;1.47;100.00
12666;BME280;58531;59.050;17.416;2023-03-25T09:52:46;98732.31;;;1.44;100.00
12666;BME280;58531;59.050;17.416;2023-03-25T09:55:20;98723.78;;;1.40;100.00
12666;BME280;58531;59.050;17.416;2023-03-25T09:57:52;98733.56;;;1.40;100.00
12666;BME280;58531;59.050;17.416;2023-03-25T10:00:23;98738.91;;;1.36;100.00
12666;BME280;58531;59.050;17.416;2023-03-25T10:02:54;98732.59;;;1.34;100.00
12666;BME280;58531;59.050;17.416;2023-03-25T10:05:53;98740.72;;;1.39;100.00
12666;BME280;58531;59.050;17.416;2023-03-25T10:08:32;98744.81;;;1.40;100.00
12666;BME280;58531;59.050;17.416;2023-03-25T10:11:05;98737.34;;;1.39;100.00
12666;BME280;58531;59.050;17.416;2023-03-25T10:13:41;98732.91;;;1.36;100.00
12666;BME280;58531;59.050;17.416;2023-03-25T10:16:17;98731.44;;;1.35;100.00
12666;BME280;58531;59.050;17.416;2023-03-25T10:19:05;98711.88;;;1.36;100.00
12666;BME280;58531;59.050;17.416;2023-03-25T10:21:44;98690.84;;;1.36;100.00
12666;BME280;58531;59.050;17.416;2023-03-25T10:24:19;98697.38;;;1.31;100.00
12666;BME280;58531;59.050;17.416;2023-03-25T10:26:50;98696.63;;;1.31;100.00
12666;BME280;58531;59.050;17.416;2023-03-25T10:29:20;98694.31;;;1.33;100.00
12666;BME280;58531;59.050;17.416;2023-03-25T10:31:50;98684.22;;;1.31;100.00
12666;BME280;58531;59.050;17.416;2023-03-25T10:34:19;98680.53;;;1.29;100.00
12666;BME280;58531;59.050;17.416;2023-03-25T10:36:52;98667.28;;;1.20;100.00
12666;BME280;58531;59.050;17.416;2023-03-25T10:39:25;98679.03;;;1.15;100.00
12666;BME280;58531;59.050;17.416;2023-03-25T10:42:02;98672.72;;;1.13;100.00
12666;BME280;58531;59.050;17.416;2023-03-25T10:44:29;98679.97;;;1.09;100.00
12666;BME280;58531;59.050;17.416;2023-03-25T10:47:00;98676.59;;;1.09;100.00
12666;BME280;58531;59.050;17.416;2023-03-25T10:49:30;98673.56;;;1.10;100.00
12666;BME280;58531;59.050;17.416;2023-03-25T10:51:58;98670.63;;;1.08;100.00
12666;BME280;58531;59.050;17.416;2023-03-25T10:54:28;98656.97;;;1.13;100.00
12666;BME280;58531;59.050;17.416;2023-03-25T10:56:58;98655.50;;;1.12;100.00
12666;BME280;58531;59.050;17.416;2023-03-25T10:59:30;98642.88;;;1.07;100.00
12666;BME280;58531;59.050;17.416;2023-03-25T11:02:01;98639.16;;;1.05;100.00
12666;BME280;58531;59.050;17.416;2023-03-25T11:04:35;98648.94;;;1.04;100.00
12666;BME280;58531;59.050;17.416;2023-03-25T11:07:08;98634.34;;;1.03;100.00
12666;BME280;58531;59.050;17.416;2023-03-25T11:09:40;98635.28;;;1.09;100.00
12666;BME280;58531;59.050;17.416;2023-03-25T11:12:07;98635.50;;;1.14;100.00
12666;BME280;58531;59.050;17.416;2023-03-25T11:14:37;98635.09;;;1.16;100.00
12666;BME280;58531;59.050;17.416;2023-03-25T11:17:10;98643.94;;;1.22;100.00
12666;BME280;58531;59.050;17.416;2023-03-25T11:19:43;98646.44;;;1.25;100.00
12666;BME280;58531;59.050;17.416;2023-03-25T11:22:16;98660.13;;;1.33;100.00
12666;BME280;58531;59.050;17.416;2023-03-25T11:24:48;98668.97;;;1.39;100.00
12666;BME280;58531;59.050;17.416;2023-03-25T11:27:17;98676.97;;;1.48;100.00
12666;BME280;58531;59.050;17.416;2023-03-25T11:29:50;98674.78;;;1.59;100.00
12666;BME280;58531;59.050;17.416;2023-03-25T11:32:31;98675.09;;;1.61;100.00
12666;BME280;58531;59.050;17.416;2023-03-25T11:35:00;98687.09;;;1.62;100.00
12666;BME280;58531;59.050;17.416;2023-03-25T11:37:28;98693.91;;;1.59;100.00
12666;BME280;58531;59.050;17.416;2023-03-25T11:40:03;98698.97;;;1.66;100.00
12666;BME280;58531;59.050;17.416;2023-03-25T11:42:32;98679.28;;;1.71;100.00
12666;BME280;58531;59.050;17.416;2023-03-25T11:45:01;98680.53;;;1.79;100.00
12666;BME280;58531;59.050;17.416;2023-03-25T11:47:30;98687.25;;;1.80;100.00
12666;BME280;58531;59.050;17.416;2023-03-25T11:49:57;98679.09;;;1.78;100.00
12666;BME280;58531;59.050;17.416;2023-03-25T11:52:26;98679.38;;;1.80;100.00
12666;BME280;58531;59.050;17.416;2023-03-25T11:54:59;98681.28;;;1.79;100.00
12666;BME280;58531;59.050;17.416;2023-03-25T11:57:37;98679.69;;;1.82;100.00
12666;BME280;58531;59.050;17.416;2023-03-25T12:00:15;98689.06;;;1.83;100.00
12666;BME280;58531;59.050;17.416;2023-03-25T12:02:46;98699.06;;;1.88;100.00
12666;BME280;58531;59.050;17.416;2023-03-25T12:05:14;98704.31;;;1.88;100.00
12666;BME280;58531;59.050;17.416;2023-03-25T12:07:43;98707.19;;;1.93;100.00
12666;BME280;58531;59.050;17.416;2023-03-25T12:10:17;98716.00;;;1.99;100.00
12666;BME280;58531;59.050;17.416;2023-03-25T12:12:55;98710.19;;;2.04;100.00
12666;BME280;58531;59.050;17.416;2023-03-25T12:15:32;98710.41;;;2.10;100.00
12666;BME280;58531;59.050;17.416;2023-03-25T12:18:19;98715.56;;;2.13;100.00
12666;BME280;58531;59.050;17.416;2023-03-25T12:21:00;98716.75;;;2.00;100.00
12666;BME280;58531;59.050;17.416;2023-03-25T12:23:38;98724.81;;;2.05;100.00
12666;BME280;58531;59.050;17.416;2023-03-25T12:26:13;98717.25;;;2.20;100.00
12666;BME280;58531;59.050;17.416;2023-03-25T12:29:01;98724.47;;;2.40;100.00
12666;BME280;58531;59.050;17.416;2023-03-25T12:31:42;98730.25;;;2.48;100.00
12666;BME280;58531;59.050;17.416;2023-03-25T12:34:21;98730.75;;;2.55;100.00
12666;BME280;58531;59.050;17.416;2023-03-25T12:36:58;98722.19;;;2.64;100.00
12666;BME280;58531;59.050;17.416;2023-03-25T12:39:39;98722.38;;;2.69;100.00
12666;BME280;58531;59.050;17.416;2023-03-25T12:42:16;98721.09;;;2.74;100.00
12666;BME280;58531;59.050;17.416;2023-03-25T12:47:41;98711.31;;;2.96;100.00
12666;BME280;58531;59.050;17.416;2023-03-25T12:50:19;98713.25;;;3.04;100.00
12666;BME280;58531;59.050;17.416;2023-03-25T12:52:54;98719.75;;;3.12;100.00
12666;BME280;58531;59.050;17.416;2023-03-25T12:55:42;98715.59;;;3.02;100.00
12666;BME280;58531;59.050;17.416;2023-03-25T12:58:36;98714.50;;;2.91;100.00
12666;BME280;58531;59.050;17.416;2023-03-25T13:01:15;98716.03;;;2.79;100.00
12666;BME280;58531;59.050;17.416;2023-03-25T13:03:57;98723.06;;;2.82;100.00
12666;BME280;58531;59.050;17.416;2023-03-25T13:06:32;98730.50;;;2.96;100.00
12666;BME280;58531;59.050;17.416;2023-03-25T13:09:02;98737.13;;;3.01;100.00
12666;BME280;58531;59.050;17.416;2023-03-25T13:11:36;98733.94;;;3.06;100.00
12666;BME280;58531;59.050;17.416;2023-03-25T13:14:11;98729.47;;;3.15;100.00
12666;BME280;58531;59.050;17.416;2023-03-25T13:16:42;98736.31;;;3.13;100.00
12666;BME280;58531;59.050;17.416;2023-03-25T13:19:13;98733.19;;;3.05;100.00
12666;BME280;58531;59.050;17.416;2023-03-25T13:21:45;98736.69;;;3.02;100.00